Time;durP1;ratioP1;P1;durP2;ratioP2;P2;SDS_P1;SDS_P2;PMS_P1;PMS_P2;Temp;Humidity;BMP_temperature;BMP_pressure;BME280_temperature;BME280_humidity;BME280_pressure;Samples;Min_cycle;Max_cycle;Signal;HPM_P1;HPM_P2
2023/10/26 00:01:26;;;;;;;26.13;17.25;;;15.50;99.90;;;;;;5053540;28;20374;-69
2023/10/26 00:03:51;;;;;;;26.35;15.75;;;16.30;99.90;;;;;;5052057;28;20120;-68
2023/10/26 00:06:17;;;;;;;27.48;16.10;;;16.80;99.90;;;;;;5052185;28;20124;-68
2023/10/26 00:08:43;;;;;;;22.88;15.43;;;16.50;99.90;;;;;;5052316;28;20139;-69
2023/10/26 00:11:08;;;;;;;22.55;15.60;;;16.10;99.90;;;;;;5052200;28;20560;-69
2023/10/26 00:13:34;;;;;;;28.23;16.98;;;16.40;99.90;;;;;;5051694;28;20436;-67
2023/10/26 00:15:59;;;;;;;29.98;16.23;;;16.20;99.90;;;;;;5035790;28;20049;-69
2023/10/26 00:18:25;;;;;;;25.58;16.20;;;16.40;99.90;;;;;;5052038;28;20049;-68
2023/10/26 00:21:01;;;;;;;30.92;17.83;;;15.50;99.90;;;;;;5052298;28;20044;-68
2023/10/26 00:23:27;;;;;;;28.20;16.45;;;16.30;99.90;;;;;;5051757;28;20075;-69
2023/10/26 00:25:53;;;;;;;22.42;15.18;;;16.00;99.90;;;;;;5035342;28;20052;-69
2023/10/26 00:28:19;;;;;;;24.63;16.23;;;15.30;99.90;;;;;;5051860;28;20056;-67
2023/10/26 00:30:45;;;;;;;24.60;16.05;;;15.20;99.90;;;;;;5051732;28;20041;-68
2023/10/26 00:33:10;;;;;;;22.83;15.30;;;15.70;99.90;;;;;;5051604;28;20109;-69
2023/10/26 00:35:36;;;;;;;22.30;15.45;;;16.00;99.90;;;;;;5051513;28;20041;-69
2023/10/26 00:38:02;;;;;;;27.63;15.98;;;15.90;99.90;;;;;;5051650;28;20052;-69
2023/10/26 00:40:27;;;;;;;25.75;15.07;;;15.60;99.90;;;;;;5051908;28;20033;-69
2023/10/26 00:43:06;;;;;;;30.70;16.02;;;15.80;99.90;;;;;;5034624;28;20045;-69
2023/10/26 00:45:34;;;;;;;23.40;14.35;;;16.20;99.90;;;;;;5052862;28;20041;-69
2023/10/26 00:48:01;;;;;;;20.45;13.93;;;15.80;99.90;;;;;;5052883;28;20400;-68
2023/10/26 00:50:27;;;;;;;23.80;15.73;;;15.30;99.90;;;;;;5051521;28;20059;-69
2023/10/26 00:52:53;;;;;;;20.90;15.52;;;15.40;99.90;;;;;;5051188;28;20447;-69
2023/10/26 00:55:19;;;;;;;36.03;19.23;;;15.20;99.90;;;;;;5051633;28;20402;-69
2023/10/26 00:57:45;;;;;;;36.55;19.35;;;15.10;99.90;;;;;;5051236;28;20045;-69
2023/10/26 01:00:11;;;;;;;29.95;18.27;;;15.40;99.90;;;;;;5052659;28;20124;-68
2023/10/26 01:02:38;;;;;;;34.60;19.55;;;15.90;99.90;;;;;;5051066;28;20116;-67
2023/10/26 01:05:04;;;;;;;25.42;17.30;;;16.20;99.90;;;;;;5051251;28;20045;-69
2023/10/26 01:07:30;;;;;;;27.88;16.83;;;15.40;99.90;;;;;;5051543;28;20045;-69
2023/10/26 01:09:56;;;;;;;33.72;17.08;;;16.00;99.90;;;;;;5051007;28;20051;-69
2023/10/26 01:12:22;;;;;;;26.33;16.70;;;15.70;99.90;;;;;;5050955;28;20045;-69
2023/10/26 01:14:48;;;;;;;27.50;17.27;;;15.40;99.90;;;;;;5051187;28;20058;-69
2023/10/26 01:17:14;;;;;;;41.72;20.33;;;15.70;99.90;;;;;;5051074;28;20082;-69
2023/10/26 01:19:46;;;;;;;26.77;17.40;;;15.80;99.90;;;;;;5050858;28;20111;-68
2023/10/26 01:22:12;;;;;;;26.48;17.52;;;15.70;99.90;;;;;;5034343;28;20044;-68
2023/10/26 01:24:38;;;;;;;26.67;16.25;;;16.00;99.90;;;;;;5051905;28;20036;-68
2023/10/26 01:27:04;;;;;;;29.48;18.15;;;16.00;99.90;;;;;;5051079;28;20041;-69
2023/10/26 01:29:31;;;;;;;32.00;19.23;;;16.40;99.90;;;;;;5052035;28;20407;-69
2023/10/26 01:31:57;;;;;;;28.45;17.60;;;15.90;99.90;;;;;;5034142;28;20102;-69
2023/10/26 01:34:22;;;;;;;31.83;18.55;;;16.20;99.90;;;;;;5050472;28;20041;-68
2023/10/26 01:36:48;;;;;;;27.92;18.65;;;15.80;99.90;;;;;;5050892;28;20068;-68
2023/10/26 01:39:18;;;;;;;42.83;22.48;;;15.50;99.90;;;;;;5050714;28;20108;-68
2023/10/26 01:41:46;;;;;;;32.60;20.33;;;16.60;99.90;;;;;;5050539;28;20037;-68
2023/10/26 01:44:12;;;;;;;40.05;20.45;;;15.60;99.90;;;;;;5050349;28;20041;-68
2023/10/26 01:46:38;;;;;;;38.40;20.27;;;15.70;99.90;;;;;;5051813;28;20120;-68
2023/10/26 01:49:03;;;;;;;37.05;21.33;;;15.50;99.90;;;;;;5050455;28;20469;-68
2023/10/26 01:51:29;;;;;;;45.33;22.67;;;16.40;99.90;;;;;;5050310;28;20098;-68
2023/10/26 01:53:55;;;;;;;34.95;20.20;;;15.80;99.90;;;;;;5050148;28;20056;-68
2023/10/26 01:56:20;;;;;;;44.92;22.75;;;16.10;99.90;;;;;;5050504;28;20060;-69
2023/10/26 01:58:46;;;;;;;54.03;26.50;;;16.30;99.90;;;;;;5050599;28;20079;-68
2023/10/26 02:01:12;;;;;;;37.92;23.08;;;16.40;99.90;;;;;;5050485;28;20443;-68
2023/10/26 02:03:38;;;;;;;45.10;23.70;;;16.40;99.90;;;;;;5049357;28;20041;-69
2023/10/26 02:06:04;;;;;;;50.45;25.73;;;16.50;99.90;;;;;;5050059;28;20508;-69
2023/10/26 02:08:29;;;;;;;41.45;25.08;;;15.90;99.90;;;;;;5050232;28;20056;-69
2023/10/26 02:10:55;;;;;;;45.67;25.38;;;15.80;99.90;;;;;;5050100;28;20049;-69
2023/10/26 02:13:21;;;;;;;53.63;25.25;;;16.70;99.90;;;;;;5049779;28;20053;-68
2023/10/26 02:15:47;;;;;;;52.80;28.23;;;16.50;99.90;;;;;;5050085;28;20527;-69
2023/10/26 02:18:12;;;;;;;84.03;31.35;;;16.10;99.90;;;;;;5049981;28;20036;-68
2023/10/26 02:20:38;;;;;;;59.15;29.80;;;16.10;99.90;;;;;;5050234;28;20033;-69
2023/10/26 02:23:04;;;;;;;50.53;26.75;;;16.80;99.90;;;;;;5049753;28;20144;-68
2023/10/26 02:25:30;;;;;;;55.35;28.48;;;16.50;99.90;;;;;;5049987;28;20130;-68
2023/10/26 02:27:57;;;;;;;47.67;25.88;;;16.40;99.90;;;;;;5049888;28;20088;-69
2023/10/26 02:30:23;;;;;;;58.95;31.40;;;15.60;99.90;;;;;;5049886;28;20056;-68
2023/10/26 02:32:48;;;;;;;45.90;26.35;;;16.50;99.90;;;;;;5049712;28;20041;-68
2023/10/26 02:35:15;;;;;;;52.60;27.55;;;15.70;99.90;;;;;;5049934;28;20047;-69
2023/10/26 02:37:40;;;;;;;46.65;26.75;;;15.70;99.90;;;;;;5049931;28;20493;-69
2023/10/26 02:40:08;;;;;;;55.30;29.23;;;16.80;99.90;;;;;;5049841;28;20040;-68
2023/10/26 02:42:34;;;;;;;56.65;29.88;;;16.10;99.90;;;;;;5049710;28;20045;-69
2023/10/26 02:45:00;;;;;;;57.08;28.45;;;16.50;99.90;;;;;;5049627;28;20044;-69
2023/10/26 02:47:26;;;;;;;78.97;34.30;;;15.80;99.90;;;;;;5049800;28;20041;-69
2023/10/26 02:49:51;;;;;;;63.97;32.58;;;16.10;99.90;;;;;;5050118;28;20077;-71
2023/10/26 02:52:17;;;;;;;70.40;33.33;;;15.90;99.90;;;;;;5049639;28;20508;-68
2023/10/26 02:54:43;;;;;;;56.63;29.38;;;15.80;99.90;;;;;;5049788;28;20095;-69
2023/10/26 02:57:08;;;;;;;63.05;32.50;;;15.50;99.90;;;;;;5049600;28;20052;-68
2023/10/26 02:59:34;;;;;;;48.33;28.33;;;15.70;99.90;;;;;;5049571;28;20123;-68
2023/10/26 03:02:00;;;;;;;68.53;34.03;;;15.80;99.90;;;;;;5049603;28;20127;-69
2023/10/26 03:04:25;;;;;;;58.80;31.70;;;16.70;99.90;;;;;;5049363;28;20064;-68
2023/10/26 03:06:51;;;;;;;54.90;30.88;;;15.80;99.90;;;;;;5049562;28;20044;-69
2023/10/26 03:09:17;;;;;;;53.45;30.77;;;16.70;99.90;;;;;;5049672;28;20415;-68
2023/10/26 03:11:43;;;;;;;55.25;30.80;;;15.90;99.90;;;;;;5049070;28;20420;-69
2023/10/26 03:14:08;;;;;;;65.93;32.17;;;16.10;99.90;;;;;;5051074;28;20040;-69
2023/10/26 03:16:34;;;;;;;65.05;31.48;;;15.80;99.90;;;;;;5053523;28;20133;-69
2023/10/26 03:18:59;;;;;;;51.70;29.80;;;15.80;99.90;;;;;;5053038;28;20124;-69
2023/10/26 03:21:25;;;;;;;52.53;29.60;;;16.10;99.90;;;;;;5052971;28;20377;-69
2023/10/26 03:23:53;;;;;;;47.83;29.02;;;16.30;99.90;;;;;;5052944;28;20100;-68
2023/10/26 03:26:20;;;;;;;58.75;30.20;;;16.10;99.90;;;;;;5053111;28;20051;-69
2023/10/26 03:28:46;;;;;;;68.15;34.95;;;15.90;99.90;;;;;;5053346;28;20131;-69
2023/10/26 03:31:12;;;;;;;57.88;33.05;;;15.80;99.90;;;;;;5053011;28;20048;-70
2023/10/26 03:33:38;;;;;;;67.95;32.55;;;16.30;99.90;;;;;;5052655;28;20475;-69
2023/10/26 03:36:04;;;;;;;58.20;30.75;;;15.80;99.90;;;;;;5054190;28;20373;-69
2023/10/26 03:38:30;;;;;;;75.50;36.38;;;17.00;99.90;;;;;;5052899;28;20045;-69
2023/10/26 03:40:55;;;;;;;58.45;31.25;;;16.00;99.90;;;;;;5053397;28;20098;-68
2023/10/26 03:43:21;;;;;;;67.85;34.08;;;15.90;99.90;;;;;;5052739;28;20037;-69
2023/10/26 03:45:46;;;;;;;74.25;35.83;;;15.90;99.90;;;;;;5052776;28;20451;-68
2023/10/26 03:48:12;;;;;;;66.57;34.72;;;16.40;99.90;;;;;;5052823;28;20045;-69
2023/10/26 03:50:38;;;;;;;62.60;32.05;;;16.50;99.90;;;;;;5052651;28;20546;-69
2023/10/26 03:53:04;;;;;;;69.22;33.33;;;16.50;99.90;;;;;;5052257;28;20073;-69
2023/10/26 03:55:29;;;;;;;63.25;33.15;;;16.60;99.90;;;;;;5052543;28;20044;-69
2023/10/26 03:57:55;;;;;;;72.93;34.33;;;16.60;99.90;;;;;;5052490;28;20500;-69
2023/10/26 04:00:21;;;;;;;90.15;36.72;;;;;;;;;;5052655;28;20106;-69
2023/10/26 04:02:47;;;;;;;77.28;36.92;;;16.40;99.90;;;;;;5052096;28;20052;-68
2023/10/26 04:05:13;;;;;;;107.05;37.53;;;15.80;99.90;;;;;;5036267;28;20449;-69
2023/10/26 04:07:39;;;;;;;63.55;33.88;;;16.20;99.90;;;;;;5053433;28;20037;-68
2023/10/26 04:10:07;;;;;;;116.10;39.72;;;15.70;99.90;;;;;;5052176;28;20055;-70
2023/10/26 04:12:33;;;;;;;60.55;33.28;;;16.60;99.90;;;;;;5051908;28;20047;-69
2023/10/26 04:14:58;;;;;;;97.93;37.85;;;15.90;99.90;;;;;;5051955;28;20041;-68
2023/10/26 04:17:24;;;;;;;66.15;35.28;;;16.30;99.90;;;;;;5053285;28;20043;-68
2023/10/26 04:19:49;;;;;;;122.30;41.72;;;16.20;99.90;;;;;;5052082;28;20459;-69
2023/10/26 04:22:15;;;;;;;63.58;32.92;;;16.50;99.90;;;;;;5052193;28;20044;-69
2023/10/26 04:24:40;;;;;;;111.03;39.80;;;15.50;99.90;;;;;;5051998;28;20500;-69
2023/10/26 04:27:06;;;;;;;63.53;32.13;;;16.00;99.90;;;;;;5051253;28;20032;-69
2023/10/26 04:29:32;;;;;;;155.98;37.13;;;15.40;99.90;;;;;;5051939;28;20045;-69
2023/10/26 04:31:57;;;;;;;170.77;37.30;;;16.10;99.90;;;;;;5051713;28;20604;-68
2023/10/26 04:34:23;;;;;;;228.95;42.63;;;16.00;99.90;;;;;;5051337;28;20092;-69
2023/10/26 04:36:48;;;;;;;378.83;53.00;;;16.30;99.90;;;;;;5052022;28;20033;-69
2023/10/26 04:39:15;;;;;;;561.97;75.82;;;15.40;99.90;;;;;;5051710;28;20497;-69
2023/10/26 04:41:41;;;;;;;330.52;52.67;;;16.00;99.90;;;;;;5051308;28;20045;-69
2023/10/26 04:44:07;;;;;;;154.93;36.13;;;15.40;99.90;;;;;;5052752;28;20036;-68
2023/10/26 04:46:33;;;;;;;445.67;56.67;;;16.20;99.90;;;;;;5051617;28;20558;-68
2023/10/26 04:48:58;;;;;;;164.15;36.03;;;15.80;99.90;;;;;;5051529;28;20044;-68
2023/10/26 04:51:24;;;;;;;103.25;32.40;;;16.40;99.90;;;;;;5051712;28;20045;-68
2023/10/26 04:53:50;;;;;;;413.88;52.83;;;15.70;99.90;;;;;;5051211;28;20032;-69
2023/10/26 04:56:16;;;;;;;265.52;41.95;;;16.00;99.90;;;;;;5051357;28;20080;-69
2023/10/26 04:58:43;;;;;;;153.93;35.22;;;15.30;99.90;;;;;;5034632;28;20072;-69
2023/10/26 05:01:10;;;;;;;462.40;65.78;;;15.50;99.90;;;;;;5051478;28;20045;-69
2023/10/26 05:03:37;;;;;;;135.25;33.38;;;15.40;99.90;;;;;;5051006;28;20045;-69
2023/10/26 05:06:03;;;;;;;203.15;36.40;;;15.80;99.90;;;;;;5051216;28;20051;-68
2023/10/26 05:08:29;;;;;;;167.60;36.78;;;16.30;99.90;;;;;;5051190;28;20041;-69
2023/10/26 05:10:55;;;;;;;318.42;42.65;;;16.00;99.90;;;;;;5051099;28;20045;-69
2023/10/26 05:13:21;;;;;;;280.02;38.60;;;15.30;99.90;;;;;;5034140;28;20041;-69
2023/10/26 05:15:47;;;;;;;206.60;32.40;;;15.70;99.90;;;;;;5068972;28;20055;-69
2023/10/26 05:18:13;;;;;;;124.82;28.98;;;16.00;99.90;;;;;;5072142;28;20408;-68
2023/10/26 05:20:38;;;;;;;162.00;33.17;;;15.50;99.90;;;;;;5071011;28;20043;-68
2023/10/26 05:23:05;;;;;;;422.52;53.60;;;15.20;99.90;;;;;;5070841;28;20441;-68
2023/10/26 05:25:31;;;;;;;266.98;38.38;;;15.50;99.90;;;;;;5070839;28;20041;-69
2023/10/26 05:27:57;;;;;;;148.88;31.55;;;15.20;99.90;;;;;;5071078;28;20048;-68
2023/10/26 05:30:23;;;;;;;217.90;39.17;;;15.40;99.90;;;;;;5070811;28;20048;-70
2023/10/26 05:32:48;;;;;;;183.80;32.08;;;15.70;99.90;;;;;;5070761;28;20044;-68
2023/10/26 05:35:14;;;;;;;152.25;32.30;;;15.50;99.90;;;;;;5070771;28;20066;-68
2023/10/26 05:37:39;;;;;;;82.35;24.23;;;15.60;99.90;;;;;;5070225;28;20048;-69
2023/10/26 05:40:06;;;;;;;71.80;24.98;;;15.80;99.90;;;;;;5071726;28;20549;-70
2023/10/26 05:42:31;;;;;;;118.82;30.77;;;15.50;99.90;;;;;;5070504;28;20047;-70
2023/10/26 05:44:57;;;;;;;76.43;27.08;;;15.80;99.90;;;;;;5070398;28;20040;-68
2023/10/26 05:47:23;;;;;;;106.45;27.85;;;15.10;99.90;;;;;;5070791;28;20068;-69
2023/10/26 05:49:51;;;;;;;69.18;24.73;;;15.60;99.90;;;;;;5070502;28;20040;-69
2023/10/26 05:52:16;;;;;;;97.97;27.48;;;15.00;99.90;;;;;;5070409;28;20093;-69
2023/10/26 05:54:42;;;;;;;87.22;25.73;;;15.00;99.90;;;;;;5070172;28;20044;-69
2023/10/26 05:57:08;;;;;;;75.35;26.55;;;15.90;99.90;;;;;;5070430;28;20040;-70
2023/10/26 05:59:34;;;;;;;95.45;26.20;;;;;;;;;;5070284;28;20119;-69
2023/10/26 06:01:59;;;;;;;178.45;29.48;;;14.80;99.90;;;;;;5070215;28;20510;-69
2023/10/26 06:04:26;;;;;;;152.65;31.13;;;15.60;99.90;;;;;;5070224;28;20045;-69
2023/10/26 06:06:51;;;;;;;118.00;24.75;;;15.50;99.90;;;;;;5070367;28;20097;-69
2023/10/26 06:09:17;;;;;;;82.03;21.98;;;14.80;99.90;;;;;;5053611;28;20040;-69
2023/10/26 06:11:43;;;;;;;208.50;32.25;;;;;;;;;;5070298;28;20045;-69
2023/10/26 06:14:09;;;;;;;77.22;22.60;;;14.90;99.90;;;;;;5070130;28;20045;-69
2023/10/26 06:16:35;;;;;;;101.43;24.88;;;;;;;;;;5049687;28;20051;-69
2023/10/26 06:19:01;;;;;;;115.28;24.52;;;;;;;;;;5069470;28;20127;-70
2023/10/26 06:21:27;;;;;;;122.15;23.83;;;;;;;;;;5066818;28;20047;-68
2023/10/26 06:23:53;;;;;;;84.72;22.25;;;;;;;;;;5060344;28;20040;-69
2023/10/26 06:26:19;;;;;;;186.18;33.70;;;;;;;;;;5054365;28;20064;-69
2023/10/26 06:28:48;;;;;;;77.28;23.10;;;;;;;;;;5053571;28;20858;-70
2023/10/26 06:31:14;;;;;;;86.07;21.02;;;;;;;;;;5031538;28;20049;-69
2023/10/26 06:33:41;;;;;;;68.65;21.02;;;;;;;;;;5052250;28;20048;-70
2023/10/26 06:36:08;;;;;;;69.78;23.40;;;14.80;99.90;;;;;;5058308;28;20543;-68
2023/10/26 06:38:34;;;;;;;59.35;22.40;;;;;;;;;;5058505;28;20515;-70
2023/10/26 06:41:00;;;;;;;66.28;22.25;;;;;;;;;;5056171;28;20072;-70
2023/10/26 06:43:26;;;;;;;41.53;21.40;;;;;;;;;;5050697;28;20073;-68
2023/10/26 06:45:53;;;;;;;51.58;21.77;;;;;;;;;;5057860;28;20437;-70
2023/10/26 06:48:20;;;;;;;59.67;23.27;;;;;;;;;;5057280;28;20492;-69
2023/10/26 06:50:46;;;;;;;109.82;29.52;;;;;;;;;;5069567;28;20044;-70
2023/10/26 06:53:12;;;;;;;76.78;22.20;;;;;;;;;;5051654;28;20044;-70
2023/10/26 06:55:38;;;;;;;67.72;22.75;;;;;;;;;;5058774;28;20045;-70
2023/10/26 06:58:04;;;;;;;36.55;19.58;;;;;;;;;;5065154;28;20095;-71
2023/10/26 07:00:31;;;;;;;35.65;19.95;;;;;;;;;;5055533;28;20076;-69
2023/10/26 07:02:57;;;;;;;36.08;20.33;;;;;;;;;;5065661;28;20058;-69
2023/10/26 07:05:23;;;;;;;34.38;19.75;;;;;;;;;;5064324;28;20132;-68
2023/10/26 07:07:49;;;;;;;35.38;20.55;;;;;;;;;;5043312;28;20036;-70
2023/10/26 07:10:15;;;;;;;34.13;19.92;;;;;;;;;;5051883;28;20045;-69
2023/10/26 07:12:42;;;;;;;35.05;21.05;;;15.40;99.90;;;;;;5061782;28;20040;-69
2023/10/26 07:15:08;;;;;;;38.50;21.60;;;;;;;;;;5066972;28;20052;-69
2023/10/26 07:17:34;;;;;;;33.03;20.95;;;;;;;;;;5060173;28;20047;-68
2023/10/26 07:20:01;;;;;;;72.22;25.90;;;;;;;;;;5064401;28;20503;-69
2023/10/26 07:22:27;;;;;;;35.65;20.52;;;;;;;;;;5058858;28;20144;-68
2023/10/26 07:24:53;;;;;;;45.92;22.15;;;;;;;;;;5063203;28;20115;-69
2023/10/26 07:27:19;;;;;;;36.65;22.45;;;;;;;;;;5057127;28;20049;-69
2023/10/26 07:29:46;;;;;;;108.28;24.13;;;;;;;;;;5061212;28;20462;-68
2023/10/26 07:32:12;;;;;;;147.57;27.13;;;;;;;;;;5057343;28;20186;-68
2023/10/26 07:34:38;;;;;;;122.30;27.08;;;;;;;;;;5052844;28;20156;-69
2023/10/26 07:37:04;;;;;;;125.80;25.90;;;;;;;;;;5064097;28;20136;-69
2023/10/26 07:39:34;;;;;;;68.60;23.23;;;16.00;99.90;;;;;;5070927;28;20083;-69
2023/10/26 07:42:00;;;;;;;203.00;30.52;;;;;;;;;;5056157;28;20036;-69
2023/10/26 07:44:26;;;;;;;114.20;24.52;;;;;;;;;;5072650;28;20044;-69
2023/10/26 07:46:52;;;;;;;151.00;25.20;;;;;;;;;;5071987;28;20166;-69
2023/10/26 07:49:18;;;;;;;75.95;21.73;;;;;;;;;;5052993;28;20067;-70
2023/10/26 07:51:44;;;;;;;128.75;24.90;;;;;;;;;;5067309;28;20492;-69
2023/10/26 07:54:10;;;;;;;156.23;26.52;;;;;;;;;;5073319;28;20044;-68
2023/10/26 07:56:38;;;;;;;86.78;22.80;;;15.30;99.90;;;;;;5072373;28;20040;-69
2023/10/26 07:59:04;;;;;;;69.10;24.23;;;;;;;;;;5072548;28;20393;-70
2023/10/26 08:01:31;;;;;;;92.57;23.80;;;;;;;;;;5054848;28;20046;-69
2023/10/26 08:03:57;;;;;;;96.45;23.45;;;;;;;;;;5072377;28;20044;-69
2023/10/26 08:06:23;;;;;;;84.40;23.88;;;;;;;;;;5073708;28;20044;-70
2023/10/26 08:08:51;;;;;;;79.15;23.67;;;16.30;99.90;;;;;;5072788;28;20052;-69
2023/10/26 08:11:17;;;;;;;118.20;29.80;;;;;;;;;;5073652;28;20028;-69
2023/10/26 08:13:44;;;;;;;82.35;24.42;;;;;;;;;;5072027;28;20040;-69
2023/10/26 08:16:11;;;;;;;60.53;23.85;;;16.60;99.90;;;;;;5072272;28;20512;-69
2023/10/26 08:18:37;;;;;;;56.05;24.38;;;;;;;;;;5071428;28;20044;-70
2023/10/26 08:21:03;;;;;;;93.40;29.42;;;16.10;99.90;;;;;;5072029;28;20045;-69
2023/10/26 08:23:31;;;;;;;57.05;26.38;;;15.90;99.90;;;;;;5072211;28;20037;-69
2023/10/26 08:25:57;;;;;;;52.72;25.85;;;;;;;;;;5072176;28;20664;-69
2023/10/26 08:28:23;;;;;;;35.35;22.23;;;;;;;;;;5072134;28;20044;-69
2023/10/26 08:30:50;;;;;;;42.45;23.65;;;;;;;;;;5071961;28;20101;-69
2023/10/26 08:33:16;;;;;;;51.63;26.67;;;;;;;;;;5071806;28;20060;-69
2023/10/26 08:35:49;;;;;;;44.28;26.33;;;16.40;99.90;;;;;;5071913;28;20047;-70
2023/10/26 08:38:17;;;;;;;;;;;17.10;99.90;;;;;;5072534;28;20118;-69
2023/10/26 08:40:51;;;;;;;63.60;26.30;;;16.50;99.90;;;;;;5072026;28;19917;-69
2023/10/26 08:43:17;;;;;;;58.72;27.98;;;;;;;;;;5071504;28;20454;-69
2023/10/26 08:45:45;;;;;;;69.13;29.77;;;;;;;;;;5071562;28;20407;-69
2023/10/26 08:48:18;;;;;;;75.72;28.90;;;16.30;99.90;;;;;;5055060;28;20519;-70
2023/10/26 08:50:44;;;;;;;;;;;16.40;99.90;;;;;;5072007;28;20037;-69
2023/10/26 08:53:10;;;;;;;180.55;40.92;;;16.60;99.90;;;;;;5071357;28;20368;-70
2023/10/26 08:55:38;;;;;;;97.90;35.67;;;16.30;99.90;;;;;;5070934;28;20033;-69
2023/10/26 08:58:04;;;;;;;78.80;30.25;;;;;;;;;;5071185;28;20044;-69
2023/10/26 09:00:30;;;;;;;136.93;37.33;;;17.00;99.90;;;;;;5071340;28;20495;-69
2023/10/26 09:02:56;;;;;;;100.47;33.70;;;17.40;99.90;;;;;;5070780;28;20040;-69
2023/10/26 09:05:22;;;;;;;112.97;34.85;;;17.10;99.90;;;;;;5071563;28;20506;-69
2023/10/26 09:07:48;;;;;;;61.75;29.17;;;;;;;;;;5071504;28;20446;-69
2023/10/26 09:10:30;;;;;;;64.43;29.10;;;16.70;99.90;;;;;;5071448;28;20044;-69
2023/10/26 09:13:07;;;;;;;66.10;30.88;;;17.30;99.90;;;;;;5071832;28;20049;-69
2023/10/26 09:15:50;;;;;;;59.15;30.67;;;17.20;99.90;;;;;;5071314;28;20108;-69
2023/10/26 09:18:16;;;;;;;52.60;28.48;;;;;;;;;;5071085;28;20553;-70
2023/10/26 09:20:45;;;;;;;68.55;34.17;;;;;;;;;;5072244;28;20043;-70
2023/10/26 09:23:27;;;;;;;64.50;31.92;;;16.60;99.90;;;;;;5070129;28;20425;-69
2023/10/26 09:26:02;;;;;;;68.72;29.63;;;17.70;99.90;;;;;;5069630;28;20039;-70
2023/10/26 09:28:28;;;;;;;75.85;31.70;;;;;;;;;;5068869;28;20129;-70
2023/10/26 09:30:59;;;;;;;56.25;29.02;;;16.60;99.90;;;;;;5070576;28;20488;-70
2023/10/26 09:33:26;;;;;;;52.08;28.40;;;;;;;;;;5068279;28;20048;-70
2023/10/26 09:35:52;;;;;;;52.90;27.85;;;;;;;;;;5070432;28;20610;-70
2023/10/26 09:38:41;;;;;;;56.55;29.20;;;17.00;99.90;;;;;;5070479;28;20052;-70
2023/10/26 09:41:11;;;;;;;58.55;30.05;;;16.80;99.90;;;;;;5072191;28;20072;-69
2023/10/26 09:43:37;;;;;;;61.80;30.73;;;;;;;;;;5071773;28;20373;-70
2023/10/26 09:46:05;;;;;;;62.17;30.55;;;;;;;;;;5070547;28;20040;-70
2023/10/26 09:48:31;;;;;;;61.42;31.60;;;;;;;;;;5070592;28;20469;-70
2023/10/26 09:51:00;;;;;;;71.93;33.13;;;;;;;;;;5070498;28;20092;-70
2023/10/26 09:53:35;;;;;;;53.13;29.35;;;17.00;99.90;;;;;;5070316;28;20051;-70
2023/10/26 09:56:03;;;;;;;50.63;27.45;;;17.30;99.90;;;;;;5070679;28;20037;-68
2023/10/26 09:58:41;;;;;;;57.03;29.40;;;16.70;99.90;;;;;;5069873;28;20089;-70
2023/10/26 10:01:42;;;;;;;53.63;29.33;;;17.00;99.90;;;;;;5070428;28;20040;-70
2023/10/26 10:04:09;;;;;;;52.08;27.75;;;16.70;99.90;;;;;;5070184;28;20074;-69
2023/10/26 10:06:53;;;;;;;47.60;27.92;;;17.60;99.90;;;;;;5070441;28;20044;-69
2023/10/26 10:09:26;;;;;;;53.65;26.38;;;17.60;99.90;;;;;;5070534;28;20048;-69
2023/10/26 10:12:04;;;;;;;52.47;28.02;;;17.50;99.90;;;;;;5069531;28;20097;-69
2023/10/26 10:14:50;;;;;;;45.10;26.15;;;16.90;99.90;;;;;;5069532;28;20055;-68
2023/10/26 10:17:17;;;;;;;52.85;29.42;;;17.50;99.90;;;;;;5069984;28;20048;-69
2023/10/26 10:19:46;;;;;;;49.78;27.05;;;16.80;99.90;;;;;;5069877;28;20056;-69
2023/10/26 10:22:33;;;;;;;43.47;24.88;;;17.10;99.90;;;;;;5070272;28;20047;-68
2023/10/26 10:24:59;;;;;;;43.08;24.33;;;17.10;99.90;;;;;;5074035;28;20079;-70
2023/10/26 10:27:24;;;;;;;49.95;26.85;;;17.90;99.90;;;;;;5078078;28;20072;-69
2023/10/26 10:29:50;;;;;;;46.47;25.80;;;;;;;;;;5076549;28;20040;-68
2023/10/26 10:32:44;;;;;;;45.50;25.85;;;17.20;99.90;;;;;;5076721;28;20399;-68
2023/10/26 10:35:11;;;;;;;42.28;23.77;;;;;;;;;;5077084;28;20515;-70
2023/10/26 10:37:38;;;;;;;41.65;25.58;;;;;;;;;;5078079;28;20079;-71
2023/10/26 10:40:14;;;;;;;42.83;24.85;;;17.50;99.90;;;;;;5076695;28;20040;-70
2023/10/26 10:42:40;;;;;;;43.80;23.77;;;;;;;;;;5076705;28;20040;-69
2023/10/26 10:45:13;;;;;;;42.15;24.30;;;17.20;99.90;;;;;;5076761;28;20045;-70
2023/10/26 10:47:42;;;;;;;44.17;23.53;;;18.00;99.90;;;;;;5077970;28;20097;-70
2023/10/26 10:50:27;;;;;;;40.83;23.80;;;18.00;99.90;;;;;;5074539;28;20049;-69
2023/10/26 10:52:54;;;;;;;40.28;24.42;;;;;;;;;;5056385;28;20052;-70
2023/10/26 10:55:29;;;;;;;39.30;23.35;;;17.40;99.90;;;;;;5056947;28;20116;-70
2023/10/26 10:57:57;;;;;;;37.70;22.48;;;;;;;;;;5056502;28;20114;-69
2023/10/26 11:00:24;;;;;;;38.55;21.95;;;;;;;;;;5056537;28;20041;-70
2023/10/26 11:02:52;;;;;;;37.90;22.15;;;;;;;;;;5056376;28;20111;-70
2023/10/26 11:05:18;;;;;;;33.08;20.88;;;;;;;;;;5056408;28;20049;-70
2023/10/26 11:07:44;;;;;;;35.38;21.83;;;;;;;;;;5039784;28;20045;-70
2023/10/26 11:10:10;;;;;;;32.08;21.52;;;;;;;;;;5056424;28;20076;-70
2023/10/26 11:12:37;;;;;;;30.20;19.95;;;;;;;;;;5056229;28;20471;-70
2023/10/26 11:15:03;;;;;;;33.33;19.98;;;;;;;;;;5057663;28;20412;-70
2023/10/26 11:17:31;;;;;;;32.70;20.35;;;17.30;99.90;;;;;;5056486;28;20120;-70
2023/10/26 11:19:57;;;;;;;31.83;20.90;;;;;;;;;;5055820;28;20080;-70
2023/10/26 11:22:23;;;;;;;32.25;20.45;;;17.40;99.90;;;;;;5057576;28;20076;-70
2023/10/26 11:24:49;;;;;;;32.05;20.33;;;;;;;;;;5047344;28;20421;-69
2023/10/26 11:27:19;;;;;;;32.80;20.20;;;18.30;99.90;;;;;;5075769;28;20044;-70
2023/10/26 11:30:04;;;;;;;34.50;20.88;;;17.90;99.90;;;;;;5076051;28;20123;-70
2023/10/26 11:32:30;;;;;;;31.73;20.67;;;;;;;;;;5074610;28;20504;-70
2023/10/26 11:35:09;;;;;;;33.65;21.02;;;18.20;99.90;;;;;;5076862;28;20049;-70
2023/10/26 11:37:36;;;;;;;34.20;20.95;;;18.30;99.90;;;;;;5073858;28;20055;-69
2023/10/26 11:40:07;;;;;;;31.40;21.35;;;17.60;99.90;;;;;;5072441;28;20045;-69
2023/10/26 11:42:45;;;;;;;31.83;19.63;;;18.40;99.90;;;;;;5072484;28;20033;-70
2023/10/26 11:45:11;;;;;;;29.45;19.77;;;;;;;;;;5074128;28;20051;-68
2023/10/26 11:48:06;;;;;;;27.52;18.45;;;18.50;99.90;;;;;;5072897;28;20465;-68
2023/10/26 11:50:36;;;;;;;34.92;20.77;;;18.80;99.90;;;;;;5055543;28;20152;-67
2023/10/26 11:53:03;;;;;;;29.67;18.30;;;;;;;;;;5072171;28;20040;-70
2023/10/26 11:55:32;;;;;;;34.28;18.70;;;18.30;99.90;;;;;;5056165;28;20492;-70
2023/10/26 11:57:59;;;;;;;33.42;20.77;;;;;;;;;;5072570;28;20414;-70
2023/10/26 12:00:26;;;;;;;25.25;18.83;;;19.00;99.90;;;;;;5072180;28;20060;-71
2023/10/26 12:02:56;;;;;;;28.40;18.42;;;18.60;99.90;;;;;;5072331;28;20047;-70
2023/10/26 12:05:23;;;;;;;26.80;18.25;;;;;;;;;;5072702;28;20044;-70
2023/10/26 12:07:49;;;;;;;25.95;17.15;;;18.40;99.90;;;;;;5072613;28;20451;-70
2023/10/26 12:10:17;;;;;;;30.13;19.67;;;19.00;99.90;;;;;;5055826;28;20766;-70
2023/10/26 12:12:44;;;;;;;23.20;17.30;;;;;;;;;;5073397;28;20067;-70
2023/10/26 12:15:10;;;;;;;27.90;18.38;;;19.10;99.90;;;;;;5072500;28;20048;-71
2023/10/26 12:17:36;;;;;;;22.67;15.93;;;;;;;;;;5072321;28;20036;-70
2023/10/26 12:20:03;;;;;;;25.67;17.40;;;;;;;;;;5072156;28;20416;-70
2023/10/26 12:22:29;;;;;;;23.75;16.70;;;;;;;;;;5072307;28;20048;-70
2023/10/26 12:24:55;;;;;;;28.20;17.65;;;;;;;;;;5071984;28;20049;-70
2023/10/26 12:27:22;;;;;;;26.38;16.58;;;;;;;;;;5072353;28;20041;-70
2023/10/26 12:29:48;;;;;;;26.45;17.13;;;;;;;;;;5071996;28;20094;-70
2023/10/26 12:32:14;;;;;;;24.02;16.27;;;;;;;;;;5071562;28;20048;-70
2023/10/26 12:34:41;;;;;;;20.98;15.93;;;;;;;;;;5072620;28;20550;-71
2023/10/26 12:37:07;;;;;;;23.67;15.82;;;;;;;;;;5069206;28;20403;-70
2023/10/26 12:39:33;;;;;;;28.15;16.50;;;19.20;99.90;;;;;;5071815;28;20044;-70
2023/10/26 12:42:00;;;;;;;26.52;17.27;;;18.80;99.90;;;;;;5072734;28;20062;-71
2023/10/26 12:44:26;;;;;;;24.38;16.10;;;;;;;;;;5072429;28;20529;-70
2023/10/26 12:46:52;;;;;;;27.08;17.83;;;;;;;;;;5073063;28;20036;-70
2023/10/26 12:49:21;;;;;;;28.38;19.00;;;;;;;;;;5072824;28;20072;-70
2023/10/26 12:51:47;;;;;;;25.42;16.70;;;;;;;;;;5069114;28;20044;-70
2023/10/26 12:54:13;;;;;;;28.35;17.80;;;;;;;;;;5067969;28;20541;-70
2023/10/26 12:56:39;;;;;;;27.20;17.50;;;;;;;;;;5071586;28;20036;-70
2023/10/26 12:59:05;;;;;;;29.27;18.23;;;;;;;;;;5054778;28;20048;-70